createdAt,value
2023-11-23T00:00:54.963Z,101593.06
2023-11-23T00:03:23.024Z,101615.25
2023-11-23T00:05:51.104Z,101585.94
2023-11-23T00:08:21.102Z,101597.88
2023-11-23T00:10:53.494Z,101602.16
2023-11-23T00:13:21.509Z,101579.00
2023-11-23T00:15:49.484Z,101577.97
2023-11-23T00:18:17.518Z,101580.63
2023-11-23T00:20:46.476Z,101572.72
2023-11-23T00:23:14.536Z,101563.19
2023-11-23T00:25:42.484Z,101553.59
2023-11-23T00:28:11.856Z,101563.75
2023-11-23T00:30:39.791Z,101560.63
2023-11-23T00:33:07.887Z,101540.34
2023-11-23T00:35:35.979Z,101532.38
2023-11-23T00:38:04.884Z,101528.22
2023-11-23T00:40:32.965Z,101530.81
2023-11-23T00:43:00.979Z,101535.09
2023-11-23T00:45:30.626Z,101537.50
2023-11-23T00:47:58.856Z,101518.56
2023-11-23T00:50:26.891Z,101519.50
2023-11-23T00:52:54.892Z,101535.84
2023-11-23T00:55:23.035Z,101527.47
2023-11-23T00:57:51.070Z,101521.03
2023-11-23T01:00:21.521Z,101529.69
2023-11-23T01:02:52.377Z,101528.06
2023-11-23T01:05:20.740Z,101521.28
2023-11-23T01:07:48.710Z,101516.13
2023-11-23T01:10:17.134Z,101519.69
2023-11-23T01:12:45.126Z,101515.09
2023-11-23T01:15:13.704Z,101512.06
2023-11-23T01:17:41.955Z,101499.81
2023-11-23T01:20:12.593Z,101509.53
2023-11-23T01:22:40.705Z,101514.63
2023-11-23T01:25:10.191Z,101501.28
2023-11-23T01:27:38.551Z,101509.19
2023-11-23T01:30:07.741Z,101497.78
2023-11-23T01:32:35.851Z,101497.03
2023-11-23T01:35:04.396Z,101492.31
2023-11-23T01:37:36.950Z,101508.84
2023-11-23T01:40:05.762Z,101494.84
2023-11-23T01:42:33.762Z,101494.25
2023-11-23T01:45:01.888Z,101500.78
2023-11-23T01:47:32.147Z,101495.34
2023-11-23T01:50:04.511Z,101499.09
2023-11-23T01:52:34.259Z,101499.97
2023-11-23T01:55:03.201Z,101489.19
2023-11-23T01:57:40.535Z,101487.91
2023-11-23T02:00:10.588Z,101475.34
2023-11-23T02:02:38.804Z,101490.28
2023-11-23T02:05:07.509Z,101476.63
2023-11-23T02:07:38.312Z,101472.09
2023-11-23T02:10:08.204Z,101465.53
2023-11-23T02:12:36.742Z,101462.84
2023-11-23T02:15:05.566Z,101454.66
2023-11-23T02:17:33.789Z,101453.03
2023-11-23T02:20:01.794Z,101448.19
2023-11-23T02:22:29.747Z,101442.56
2023-11-23T02:24:59.147Z,101448.50
2023-11-23T02:27:27.128Z,101441.44
2023-11-23T02:29:55.253Z,101432.00
2023-11-23T02:32:26.905Z,101428.63
2023-11-23T02:34:54.919Z,101421.28
2023-11-23T02:37:22.959Z,101419.16
2023-11-23T02:39:51.622Z,101422.94
2023-11-23T02:42:21.110Z,101415.41
2023-11-23T02:44:49.218Z,101416.41
2023-11-23T02:47:17.311Z,101403.91
2023-11-23T02:49:45.301Z,101397.66
2023-11-23T02:52:13.859Z,101390.09
2023-11-23T02:54:41.885Z,101396.63
2023-11-23T02:57:09.934Z,101389.97
2023-11-23T02:59:39.338Z,101380.81
2023-11-23T03:02:07.507Z,101402.09
2023-11-23T03:04:35.585Z,101389.00
2023-11-23T03:07:03.546Z,101394.69
2023-11-23T03:09:31.529Z,101383.34
2023-11-23T03:11:59.530Z,101372.22
2023-11-23T03:14:27.797Z,101379.44
2023-11-23T03:16:58.227Z,101374.84
2023-11-23T03:19:26.224Z,101368.44
2023-11-23T03:21:54.235Z,101356.94
2023-11-23T03:24:22.459Z,101363.00
2023-11-23T03:26:50.466Z,101351.75
2023-11-23T03:29:18.434Z,101352.38
2023-11-23T03:31:46.501Z,101351.47
2023-11-23T03:34:15.983Z,101354.03
2023-11-23T03:36:44.489Z,101356.06
2023-11-23T03:39:13.617Z,101348.78
2023-11-23T03:41:41.703Z,101350.25
2023-11-23T03:44:09.688Z,101339.53
2023-11-23T03:46:37.684Z,101338.72
2023-11-23T03:49:06.159Z,101332.56
2023-11-23T03:51:35.554Z,101324.13
2023-11-23T03:54:04.017Z,101331.94
2023-11-23T03:56:32.061Z,101335.06
2023-11-23T03:59:00.110Z,101324.66
2023-11-23T04:01:28.171Z,101330.00
2023-11-23T04:03:56.199Z,101313.47
2023-11-23T04:06:24.769Z,101324.59
2023-11-23T04:08:54.191Z,101319.03
2023-11-23T04:11:23.076Z,101308.34
2023-11-23T04:13:51.026Z,101300.88
2023-11-23T04:16:19.053Z,101294.81
2023-11-23T04:18:47.480Z,101295.28
2023-11-23T04:21:15.721Z,101299.44
2023-11-23T04:23:43.825Z,101291.31
2023-11-23T04:26:13.210Z,101280.78
2023-11-23T04:28:42.005Z,101290.44
2023-11-23T04:31:10.074Z,101284.19
2023-11-23T04:33:41.620Z,101280.19
2023-11-23T04:36:12.631Z,101285.44
2023-11-23T04:38:40.828Z,101286.22
2023-11-23T04:41:08.787Z,101283.66
2023-11-23T04:43:38.327Z,101283.25
2023-11-23T04:46:07.131Z,101280.50
2023-11-23T04:48:35.169Z,101280.72
2023-11-23T04:51:03.265Z,101282.88
2023-11-23T04:53:31.200Z,101277.66
2023-11-23T04:55:59.788Z,101276.66
2023-11-23T04:58:28.573Z,101273.28
2023-11-23T05:00:57.984Z,101262.63
2023-11-23T05:03:26.061Z,101261.50
2023-11-23T05:05:54.151Z,101249.66
2023-11-23T05:08:22.139Z,101241.66
2023-11-23T05:10:50.150Z,101237.97
2023-11-23T05:13:18.238Z,101240.47
2023-11-23T05:15:46.204Z,101238.06
2023-11-23T05:18:16.108Z,101228.69
2023-11-23T05:20:44.184Z,101233.34
2023-11-23T05:23:12.128Z,101228.09
2023-11-23T05:25:40.194Z,101240.75
2023-11-23T05:28:08.287Z,101238.03
2023-11-23T05:30:36.771Z,101242.88
2023-11-23T05:33:05.823Z,101240.66
2023-11-23T05:35:35.493Z,101228.09
2023-11-23T05:38:03.472Z,101234.78
2023-11-23T05:40:31.452Z,101231.84
2023-11-23T05:43:05.389Z,101224.19
2023-11-23T05:45:35.239Z,101228.84
2023-11-23T05:48:03.718Z,101225.16
2023-11-23T05:50:31.764Z,101217.84
2023-11-23T05:53:01.110Z,101204.22
2023-11-23T05:55:29.109Z,101200.97
2023-11-23T05:57:57.048Z,101201.31
2023-11-23T06:00:26.104Z,101194.91
2023-11-23T06:02:54.359Z,101193.53
2023-11-23T06:05:22.557Z,101185.34
2023-11-23T06:07:50.544Z,101174.84
2023-11-23T06:10:20.157Z,101185.69
2023-11-23T06:12:48.122Z,101184.06
2023-11-23T06:15:16.269Z,101182.56
2023-11-23T06:17:44.304Z,101187.56
2023-11-23T06:20:15.384Z,101174.09
2023-11-23T06:22:43.380Z,101184.66
2023-11-23T06:25:13.753Z,101182.66
2023-11-23T06:27:43.290Z,101180.75
2023-11-23T06:30:12.553Z,101181.31
2023-11-23T06:32:40.650Z,101171.22
2023-11-23T06:35:12.114Z,101167.31
2023-11-23T06:37:40.760Z,101162.75
2023-11-23T06:40:10.036Z,101149.66
2023-11-23T06:42:39.272Z,101140.59
2023-11-23T06:45:10.634Z,101134.69
2023-11-23T06:47:38.676Z,101130.56
2023-11-23T06:50:07.849Z,101133.16
2023-11-23T06:52:35.884Z,101125.91
2023-11-23T06:55:04.131Z,101130.38
2023-11-23T06:57:32.137Z,101118.91
2023-11-23T07:00:00.398Z,101115.91
2023-11-23T07:02:30.409Z,101116.16
2023-11-23T07:04:58.579Z,101115.13
2023-11-23T07:07:26.604Z,101116.47
2023-11-23T07:09:54.667Z,101115.69
2023-11-23T07:12:22.650Z,101099.59
2023-11-23T07:14:51.292Z,101097.41
2023-11-23T07:17:19.313Z,101095.16
2023-11-23T07:19:48.652Z,101089.13
2023-11-23T07:22:16.627Z,101071.16
2023-11-23T07:24:44.562Z,101068.59
2023-11-23T07:27:12.784Z,101074.81
2023-11-23T07:29:40.856Z,101077.88
2023-11-23T07:32:09.563Z,101070.22
2023-11-23T07:34:38.465Z,101065.75
2023-11-23T07:37:09.586Z,101063.66
2023-11-23T07:39:38.972Z,101060.50
2023-11-23T07:42:07.706Z,101082.34
2023-11-23T07:44:35.820Z,101076.84
2023-11-23T07:47:03.818Z,101068.34
2023-11-23T07:49:31.752Z,101061.72
2023-11-23T07:51:59.783Z,101065.56
2023-11-23T07:54:29.287Z,101069.56
2023-11-23T07:56:57.379Z,101061.47
2023-11-23T07:59:25.459Z,101059.34
2023-11-23T08:01:55.498Z,101058.50
2023-11-23T08:04:25.361Z,101045.50
2023-11-23T08:06:53.492Z,101046.06
2023-11-23T08:09:21.573Z,101058.38
2023-11-23T08:11:53.871Z,101046.81
2023-11-23T08:14:22.533Z,101033.19
2023-11-23T08:16:50.671Z,101036.09
2023-11-23T08:19:19.420Z,101035.25
2023-11-23T08:21:50.696Z,101049.06
2023-11-23T08:24:18.918Z,101027.72
2023-11-23T08:26:46.999Z,101028.09
2023-11-23T08:29:17.166Z,101028.28
2023-11-23T08:31:46.947Z,101021.41
2023-11-23T08:34:15.533Z,101020.31
2023-11-23T08:36:43.441Z,101017.34
2023-11-23T08:39:20.452Z,101020.13
2023-11-23T08:41:56.577Z,101024.41
2023-11-23T08:44:39.926Z,101008.69
2023-11-23T08:47:09.381Z,101021.06
2023-11-23T08:49:49.621Z,101025.16
2023-11-23T08:52:32.645Z,101010.28
2023-11-23T08:55:01.274Z,101004.47
2023-11-23T08:57:33.428Z,100995.41
2023-11-23T09:00:04.294Z,101003.72
2023-11-23T09:02:41.366Z,101001.16
2023-11-23T09:05:10.929Z,100985.28
2023-11-23T09:07:40.262Z,100985.88
2023-11-23T09:10:11.137Z,100987.19
2023-11-23T09:12:39.565Z,100982.25
2023-11-23T09:15:32.591Z,100977.88
2023-11-23T09:18:14.277Z,100971.13
2023-11-23T09:20:42.906Z,100957.75
2023-11-23T09:23:25.135Z,100951.53
2023-11-23T09:25:55.132Z,100940.34
2023-11-23T09:28:24.690Z,100946.16
2023-11-23T09:30:57.463Z,100944.06
2023-11-23T09:33:33.257Z,100948.00
2023-11-23T09:36:14.515Z,100931.94
2023-11-23T09:38:43.381Z,100938.63
2023-11-23T09:41:21.148Z,100926.09
2023-11-23T09:43:49.792Z,100907.94
2023-11-23T09:46:20.684Z,100925.31
2023-11-23T09:48:55.435Z,100908.53
2023-11-23T09:51:29.703Z,100903.06
2023-11-23T09:54:04.823Z,100898.88
2023-11-23T09:56:33.325Z,100880.72
2023-11-23T09:59:05.578Z,100875.47
2023-11-23T10:01:49.177Z,100892.81
2023-11-23T10:04:27.371Z,100870.44
2023-11-23T10:06:56.123Z,100883.69
2023-11-23T10:09:28.212Z,100885.00
2023-11-23T10:11:57.888Z,100890.56
2023-11-23T10:14:26.916Z,100862.63
2023-11-23T10:16:58.113Z,100889.16
2023-11-23T10:19:27.675Z,100878.03
2023-11-23T10:22:01.046Z,100864.13
2023-11-23T10:24:32.202Z,100855.22
2023-11-23T10:27:03.957Z,100847.31
2023-11-23T10:29:33.691Z,100844.88
2023-11-23T10:32:09.066Z,100837.44
2023-11-23T10:34:46.332Z,100837.25
2023-11-23T10:37:17.795Z,100833.50
2023-11-23T10:39:55.699Z,100834.81
2023-11-23T10:42:27.252Z,100832.97
2023-11-23T10:44:57.476Z,100829.75
2023-11-23T10:47:31.181Z,100824.28
2023-11-23T10:50:03.584Z,100829.75
2023-11-23T10:52:34.042Z,100828.56
2023-11-23T10:55:02.115Z,100822.34
2023-11-23T10:57:31.758Z,100818.59
2023-11-23T11:00:14.241Z,100816.44
2023-11-23T11:02:44.925Z,100817.28
2023-11-23T11:05:25.245Z,100824.47
2023-11-23T11:08:01.225Z,100805.63
2023-11-23T11:10:30.419Z,100807.00
2023-11-23T11:13:17.313Z,100809.22
2023-11-23T11:15:58.095Z,100813.66
2023-11-23T11:18:28.579Z,100798.78
2023-11-23T11:21:10.583Z,100806.88
2023-11-23T11:23:40.077Z,100790.75
2023-11-23T11:26:10.924Z,100795.75
2023-11-23T11:28:39.933Z,100787.19
2023-11-23T11:31:10.168Z,100792.97
2023-11-23T11:33:39.991Z,100774.94
2023-11-23T11:36:09.722Z,100767.56
2023-11-23T11:38:38.500Z,100772.41
2023-11-23T11:41:08.335Z,100774.06
2023-11-23T11:43:36.346Z,100767.66
2023-11-23T11:46:06.469Z,100767.28
2023-11-23T11:48:34.585Z,100765.41
2023-11-23T11:51:06.294Z,100752.56
2023-11-23T11:53:34.573Z,100755.38
2023-11-23T11:56:04.741Z,100740.78
2023-11-23T11:58:32.712Z,100744.25
2023-11-23T12:01:01.099Z,100738.25
2023-11-23T12:03:29.227Z,100728.84
2023-11-23T12:05:57.514Z,100722.81
2023-11-23T12:08:36.225Z,100713.41
2023-11-23T12:11:06.639Z,100723.91
2023-11-23T12:13:36.650Z,100702.81
2023-11-23T12:16:04.897Z,100710.28
2023-11-23T12:18:36.471Z,100705.91
2023-11-23T12:21:05.470Z,100693.47
2023-11-23T12:23:42.160Z,100700.22
2023-11-23T12:26:11.255Z,100677.03
2023-11-23T12:28:40.118Z,100679.69
2023-11-23T12:31:08.879Z,100677.97
2023-11-23T12:33:40.349Z,100679.22
2023-11-23T12:36:09.102Z,100675.59
2023-11-23T12:38:41.623Z,100658.84
2023-11-23T12:41:13.831Z,100668.94
2023-11-23T12:43:46.416Z,100653.69
2023-11-23T12:46:17.040Z,100651.38
2023-11-23T12:48:48.419Z,100649.63
2023-11-23T12:51:19.391Z,100638.94
2023-11-23T12:53:48.892Z,100621.19
2023-11-23T12:56:16.932Z,100625.22
2023-11-23T12:58:45.076Z,100619.94
2023-11-23T13:01:13.335Z,100612.66
2023-11-23T13:03:41.601Z,100604.22
2023-11-23T13:06:10.842Z,100613.41
2023-11-23T13:08:39.312Z,100598.41
2023-11-23T13:11:08.720Z,100595.31
2023-11-23T13:13:36.644Z,100576.69
2023-11-23T13:16:04.984Z,100576.50
2023-11-23T13:18:51.077Z,100566.91
2023-11-23T13:21:27.115Z,100557.28
2023-11-23T13:23:55.293Z,100552.69
2023-11-23T13:26:26.290Z,100546.50
2023-11-23T13:28:58.404Z,100539.56
2023-11-23T13:31:26.488Z,100538.28
2023-11-23T13:33:54.502Z,100538.28
2023-11-23T13:36:23.823Z,100530.41
2023-11-23T13:38:52.501Z,100510.72
2023-11-23T13:41:20.526Z,100524.72
2023-11-23T13:43:49.968Z,100518.75
2023-11-23T13:46:18.141Z,100511.81
2023-11-23T13:48:47.380Z,100508.44
2023-11-23T13:51:18.954Z,100490.13
2023-11-23T13:53:47.058Z,100478.88
2023-11-23T13:56:19.299Z,100470.97
2023-11-23T13:58:47.283Z,100486.28
2023-11-23T14:01:16.801Z,100487.31
2023-11-23T14:03:45.221Z,100481.09
2023-11-23T14:06:14.745Z,100479.28
2023-11-23T14:08:42.716Z,100484.88
2023-11-23T14:11:10.777Z,100472.22
2023-11-23T14:13:38.926Z,100450.69
2023-11-23T14:16:08.496Z,100467.34
2023-11-23T14:18:40.822Z,100457.38
2023-11-23T14:21:09.673Z,100462.00
2023-11-23T14:23:37.800Z,100451.91
2023-11-23T14:26:05.786Z,100450.69
2023-11-23T14:28:33.823Z,100447.38
2023-11-23T14:31:03.571Z,100435.44
2023-11-23T14:33:32.921Z,100430.34
2023-11-23T14:36:14.570Z,100421.59
2023-11-23T14:38:44.090Z,100421.00
2023-11-23T14:41:14.959Z,100399.22
2023-11-23T14:43:43.255Z,100406.75
2023-11-23T14:46:11.429Z,100411.34
2023-11-23T14:48:39.496Z,100396.41
2023-11-23T14:51:10.774Z,100390.91
2023-11-23T14:53:40.175Z,100388.00
2023-11-23T14:56:10.770Z,100377.41
2023-11-23T14:58:39.958Z,100377.09
2023-11-23T15:01:08.507Z,100379.06
2023-11-23T15:03:38.728Z,100369.47
2023-11-23T15:06:08.917Z,100375.66
2023-11-23T15:08:37.007Z,100360.56
2023-11-23T15:11:05.512Z,100357.72
2023-11-23T15:13:38.717Z,100361.41
2023-11-23T15:16:07.958Z,100365.19
2023-11-23T15:18:36.538Z,100367.09
2023-11-23T15:21:05.925Z,100344.66
2023-11-23T15:23:36.058Z,100338.88
2023-11-23T15:26:04.749Z,100340.56
2023-11-23T15:28:33.064Z,100343.66
2023-11-23T15:31:01.467Z,100344.47
2023-11-23T15:33:31.821Z,100324.22
2023-11-23T15:35:59.884Z,100330.84
2023-11-23T15:38:28.133Z,100326.66
2023-11-23T15:41:07.803Z,100318.31
2023-11-23T15:43:36.116Z,100335.09
2023-11-23T15:46:06.003Z,100307.94
2023-11-23T15:48:34.315Z,100301.13
2023-11-23T15:51:05.285Z,100292.47
2023-11-23T15:53:33.373Z,100289.94
2023-11-23T15:56:03.060Z,100297.59
2023-11-23T15:58:32.236Z,100290.47
2023-11-23T16:01:01.611Z,100307.13
2023-11-23T16:03:30.332Z,100281.06
2023-11-23T16:05:58.360Z,100279.03
2023-11-23T16:08:26.304Z,100273.81
2023-11-23T16:10:54.394Z,100268.81
2023-11-23T16:13:23.763Z,100260.34
2023-11-23T16:15:51.787Z,100259.84
2023-11-23T16:18:19.975Z,100281.19
2023-11-23T16:20:51.940Z,100252.25
2023-11-23T16:23:20.225Z,100246.22
2023-11-23T16:25:48.142Z,100248.41
2023-11-23T16:28:16.054Z,100244.16
2023-11-23T16:30:45.663Z,100251.84
2023-11-23T16:33:13.795Z,100304.94
2023-11-23T16:35:41.815Z,100309.84
2023-11-23T16:38:10.346Z,100320.88
2023-11-23T16:40:38.313Z,100325.59
2023-11-23T16:43:06.554Z,100332.88
2023-11-23T16:45:34.771Z,100326.50
2023-11-23T16:48:04.314Z,100335.47
2023-11-23T16:50:32.566Z,100344.28
2023-11-23T16:53:00.618Z,100343.97
2023-11-23T16:55:28.795Z,100352.22
2023-11-23T16:57:56.973Z,100345.50
2023-11-23T17:00:25.127Z,100358.28
2023-11-23T17:02:53.168Z,100362.63
2023-11-23T17:05:23.490Z,100366.38
2023-11-23T17:07:51.565Z,100330.09
2023-11-23T17:10:20.980Z,100374.91
2023-11-23T17:12:49.345Z,100366.03
2023-11-23T17:15:17.633Z,100383.53
2023-11-23T17:17:46.954Z,100384.88
2023-11-23T17:20:16.874Z,100372.81
2023-11-23T17:22:48.997Z,100371.00
2023-11-23T17:25:21.051Z,100405.34
2023-11-23T17:27:49.273Z,100394.06
2023-11-23T17:30:17.911Z,100397.66
2023-11-23T17:32:46.002Z,100387.22
2023-11-23T17:35:14.090Z,100369.75
2023-11-23T17:37:42.059Z,100389.59
2023-11-23T17:40:13.989Z,100385.19
2023-11-23T17:42:43.114Z,100395.13
2023-11-23T17:45:11.448Z,100378.84
2023-11-23T17:47:39.580Z,100376.91
2023-11-23T17:50:10.766Z,100364.78
2023-11-23T17:52:42.929Z,100373.00
2023-11-23T17:55:23.765Z,100357.84
2023-11-23T17:57:51.903Z,100374.56
2023-11-23T18:00:21.138Z,100370.50
2023-11-23T18:02:49.303Z,100370.88
2023-11-23T18:05:18.736Z,100382.56
2023-11-23T18:07:50.164Z,100383.03
2023-11-23T18:10:21.533Z,100395.28
2023-11-23T18:12:52.780Z,100397.94
2023-11-23T18:15:22.036Z,100386.88
2023-11-23T18:17:51.906Z,100397.88
2023-11-23T18:20:20.688Z,100407.13
2023-11-23T18:22:55.193Z,100423.41
2023-11-23T18:25:25.067Z,100439.13
2023-11-23T18:27:53.335Z,100421.72
2023-11-23T18:30:34.493Z,100435.91
2023-11-23T18:33:07.197Z,100419.28
2023-11-23T18:35:35.613Z,100409.81
2023-11-23T18:38:06.909Z,100416.63
2023-11-23T18:40:37.638Z,100412.44
2023-11-23T18:43:05.709Z,100409.50
2023-11-23T18:45:34.471Z,100410.53
2023-11-23T18:48:06.178Z,100400.31
2023-11-23T18:50:34.776Z,100406.41
2023-11-23T18:53:02.929Z,100403.56
2023-11-23T18:55:30.991Z,100411.88
2023-11-23T18:58:00.522Z,100412.31
2023-11-23T19:00:28.762Z,100406.38
2023-11-23T19:02:59.622Z,100400.13
2023-11-23T19:05:28.342Z,100401.50
2023-11-23T19:07:56.431Z,100395.25
2023-11-23T19:10:25.530Z,100388.59
2023-11-23T19:13:03.330Z,100375.03
2023-11-23T19:15:36.399Z,100360.88
2023-11-23T19:18:05.565Z,100359.13
2023-11-23T19:20:41.732Z,100367.81
2023-11-23T19:23:10.655Z,100360.59
2023-11-23T19:25:39.189Z,100367.13
2023-11-23T19:28:08.268Z,100364.69
2023-11-23T19:30:40.101Z,100370.88
2023-11-23T19:33:16.481Z,100362.84
2023-11-23T19:35:48.490Z,100365.44
2023-11-23T19:38:17.081Z,100378.91
2023-11-23T19:40:45.821Z,100368.00
2023-11-23T19:43:16.502Z,100363.38
2023-11-23T19:45:47.807Z,100357.44
2023-11-23T19:48:16.991Z,100366.19
2023-11-23T19:50:45.736Z,100358.03
2023-11-23T19:53:17.929Z,100347.00
2023-11-23T19:55:46.709Z,100352.03
2023-11-23T19:58:15.721Z,100354.59
2023-11-23T20:00:45.401Z,100345.75
2023-11-23T20:03:13.985Z,100336.75
2023-11-23T20:05:42.309Z,100335.31
2023-11-23T20:08:13.703Z,100325.72
2023-11-23T20:10:45.735Z,100316.09
2023-11-23T20:13:24.917Z,100310.69
2023-11-23T20:15:57.017Z,100313.47
2023-11-23T20:18:26.095Z,100320.28
2023-11-23T20:20:54.230Z,100312.88
2023-11-23T20:23:22.370Z,100305.09
2023-11-23T20:25:50.531Z,100295.50
2023-11-23T20:28:18.716Z,100308.81
2023-11-23T20:30:53.805Z,100291.91
2023-11-23T20:33:23.503Z,100297.94
2023-11-23T20:35:51.564Z,100284.78
2023-11-23T20:38:22.460Z,100277.13
2023-11-23T20:40:53.417Z,100286.91
2023-11-23T20:43:25.441Z,100278.81
2023-11-23T20:45:55.038Z,100283.75
2023-11-23T20:48:24.433Z,100280.06
2023-11-23T20:50:53.885Z,100271.44
2023-11-23T20:53:29.644Z,100283.09
2023-11-23T20:55:58.334Z,100283.00
2023-11-23T20:58:26.916Z,100275.94
2023-11-23T21:00:57.889Z,100283.28
2023-11-23T21:03:29.795Z,100280.50
2023-11-23T21:05:58.901Z,100276.06
2023-11-23T21:08:27.305Z,100284.09
2023-11-23T21:11:03.041Z,100268.38
2023-11-23T21:13:31.588Z,100289.78
2023-11-23T21:15:59.861Z,100287.03
2023-11-23T21:18:29.580Z,100280.44
2023-11-23T21:20:57.866Z,100280.91
2023-11-23T21:23:26.736Z,100268.88
2023-11-23T21:25:54.775Z,100276.09
2023-11-23T21:28:23.045Z,100280.28
2023-11-23T21:30:51.490Z,100297.81
2023-11-23T21:33:20.027Z,100276.63
2023-11-23T21:35:49.368Z,100290.63
2023-11-23T21:38:17.398Z,100295.66
2023-11-23T21:40:45.825Z,100303.97
2023-11-23T21:43:13.944Z,100304.19
2023-11-23T21:45:42.688Z,100315.34
2023-11-23T21:48:10.845Z,100323.34
2023-11-23T21:50:39.133Z,100327.50
2023-11-23T21:53:08.792Z,100325.25
2023-11-23T21:55:38.668Z,100331.63
2023-11-23T21:58:06.855Z,100324.19
2023-11-23T22:00:34.795Z,100323.19
2023-11-23T22:03:03.814Z,100320.63
2023-11-23T22:05:34.024Z,100321.88
2023-11-23T22:08:02.038Z,100314.84
2023-11-23T22:10:31.476Z,100300.31
2023-11-23T22:12:59.529Z,100305.25
2023-11-23T22:15:27.558Z,100292.53
2023-11-23T22:17:57.760Z,100307.16
2023-11-23T22:20:26.480Z,100305.44
2023-11-23T22:22:55.996Z,100295.56
2023-11-23T22:25:25.090Z,100313.59
2023-11-23T22:27:55.351Z,100306.75
2023-11-23T22:30:24.055Z,100301.66
2023-11-23T22:32:58.099Z,100300.31
2023-11-23T22:35:27.199Z,100302.13
2023-11-23T22:37:55.652Z,100301.94
2023-11-23T22:40:24.415Z,100311.34
2023-11-23T22:42:54.622Z,100311.25
2023-11-23T22:45:23.283Z,100312.94
2023-11-23T22:47:53.961Z,100310.38
2023-11-23T22:50:22.563Z,100315.91
2023-11-23T22:52:50.573Z,100316.06
2023-11-23T22:55:19.040Z,100306.41
2023-11-23T22:57:47.941Z,100310.75
2023-11-23T23:00:25.371Z,100308.28
2023-11-23T23:02:54.097Z,100310.75
2023-11-23T23:05:28.838Z,100341.53
2023-11-23T23:07:57.717Z,100329.38
2023-11-23T23:10:28.606Z,100338.66
2023-11-23T23:12:58.424Z,100319.34
2023-11-23T23:15:28.095Z,100324.13
2023-11-23T23:17:57.202Z,100320.41
2023-11-23T23:20:25.508Z,100332.56
2023-11-23T23:22:57.278Z,100320.88
2023-11-23T23:25:40.264Z,100331.34
2023-11-23T23:28:18.193Z,100323.47
2023-11-23T23:30:52.004Z,100326.84
2023-11-23T23:33:20.283Z,100320.88
2023-11-23T23:35:48.724Z,100331.22
2023-11-23T23:38:16.791Z,100326.78
2023-11-23T23:40:44.885Z,100321.78
2023-11-23T23:43:15.709Z,100326.25
2023-11-23T23:45:44.531Z,100333.91
2023-11-23T23:48:14.274Z,100342.41
2023-11-23T23:50:45.083Z,100341.00
2023-11-23T23:53:14.474Z,100337.41
2023-11-23T23:55:47.067Z,100340.53
2023-11-23T23:58:18.321Z,100327.25
